createdAt,value
2022-12-15T00:02:18.654Z,10.03
2022-12-15T00:05:04.261Z,8.73
2022-12-15T00:07:49.362Z,10.00
2022-12-15T00:10:34.686Z,7.10
2022-12-15T00:13:19.874Z,13.93
2022-12-15T00:16:07.056Z,9.00
2022-12-15T00:18:52.453Z,10.90
2022-12-15T00:21:37.647Z,9.70
2022-12-15T00:24:23.144Z,8.47
2022-12-15T00:27:08.398Z,8.20
2022-12-15T00:29:53.558Z,9.80
2022-12-15T00:32:38.578Z,9.20
2022-12-15T00:35:24.885Z,13.70
2022-12-15T00:38:09.702Z,13.27
2022-12-15T00:40:36.424Z,12.93
2022-12-15T00:43:03.556Z,12.80
2022-12-15T00:45:48.737Z,16.23
2022-12-15T00:48:15.755Z,9.47
2022-12-15T00:50:54.201Z,11.30
2022-12-15T00:53:41.717Z,11.10
2022-12-15T00:56:28.128Z,10.70
2022-12-15T00:59:13.838Z,8.87
2022-12-15T01:01:59.573Z,12.87
2022-12-15T01:04:45.312Z,11.33
2022-12-15T01:07:30.516Z,10.43
2022-12-15T01:10:15.748Z,8.97
2022-12-15T01:13:01.133Z,10.40
2022-12-15T01:15:46.589Z,10.27
2022-12-15T01:18:31.560Z,9.03
2022-12-15T01:21:03.480Z,13.03
2022-12-15T01:23:31.289Z,10.67
2022-12-15T01:25:58.497Z,10.20
2022-12-15T01:28:25.393Z,8.50
2022-12-15T01:30:52.842Z,7.87
2022-12-15T01:33:20.467Z,5.57
2022-12-15T01:36:01.768Z,5.50
2022-12-15T01:38:28.990Z,7.93
2022-12-15T01:40:59.518Z,4.33
2022-12-15T01:43:30.409Z,7.20
2022-12-15T01:46:20.348Z,6.23
2022-12-15T01:48:51.765Z,5.57
2022-12-15T01:51:33.719Z,9.20
2022-12-15T01:54:17.748Z,10.00
2022-12-15T01:56:48.303Z,6.43
2022-12-15T01:59:22.675Z,5.93
2022-12-15T02:01:49.687Z,5.67
2022-12-15T02:04:19.826Z,5.77
2022-12-15T02:06:46.396Z,4.83
2022-12-15T02:09:13.469Z,9.60
2022-12-15T02:12:05.858Z,5.43
2022-12-15T02:14:48.917Z,4.23
2022-12-15T02:17:45.598Z,9.80
2022-12-15T02:20:42.052Z,4.63
2022-12-15T02:23:46.330Z,5.97
2022-12-15T02:26:25.419Z,7.37
2022-12-15T02:29:29.191Z,3.90
2022-12-15T02:32:11.533Z,9.27
2022-12-15T02:34:49.167Z,6.67
2022-12-15T02:37:22.625Z,8.10
2022-12-15T02:39:49.244Z,9.60
2022-12-15T02:42:16.420Z,5.57
2022-12-15T02:44:43.547Z,6.53
2022-12-15T02:47:27.552Z,5.17
2022-12-15T02:50:29.307Z,4.80
2022-12-15T02:53:37.135Z,9.40
2022-12-15T02:56:19.226Z,14.80
2022-12-15T02:59:11.222Z,9.53
2022-12-15T03:01:50.081Z,8.63
2022-12-15T03:04:18.200Z,4.47
2022-12-15T03:06:44.951Z,6.23
2022-12-15T03:09:12.511Z,5.40
2022-12-15T03:11:39.180Z,10.30
2022-12-15T03:14:05.776Z,10.23
2022-12-15T03:16:32.440Z,8.97
2022-12-15T03:18:59.066Z,7.50
2022-12-15T03:21:25.644Z,11.50
2022-12-15T03:23:52.240Z,7.70
2022-12-15T03:26:18.831Z,9.33
2022-12-15T03:28:45.531Z,10.47
2022-12-15T03:31:12.138Z,10.60
2022-12-15T03:33:38.784Z,7.63
2022-12-15T03:36:05.603Z,9.47
2022-12-15T03:38:32.227Z,7.47
2022-12-15T03:40:58.853Z,7.87
2022-12-15T03:43:25.480Z,10.20
2022-12-15T03:45:52.339Z,9.30
2022-12-15T03:48:18.959Z,10.40
2022-12-15T03:50:47.595Z,10.87
2022-12-15T03:53:14.293Z,9.37
2022-12-15T03:55:40.856Z,11.37
2022-12-15T03:58:07.630Z,12.33
2022-12-15T04:00:34.685Z,11.70
2022-12-15T04:03:01.427Z,11.00
2022-12-15T04:05:30.797Z,11.80
2022-12-15T04:07:59.093Z,10.80
2022-12-15T04:10:33.539Z,7.87
2022-12-15T04:13:04.214Z,8.13
2022-12-15T04:15:30.850Z,11.17
2022-12-15T04:17:58.393Z,6.93
2022-12-15T04:20:24.985Z,8.43
2022-12-15T04:22:51.775Z,9.33
2022-12-15T04:25:40.835Z,8.07
2022-12-15T04:28:27.261Z,8.03
2022-12-15T04:31:24.896Z,7.67
2022-12-15T04:34:13.213Z,8.37
2022-12-15T04:37:00.903Z,7.37
2022-12-15T04:39:46.333Z,7.40
2022-12-15T04:42:31.708Z,6.93
2022-12-15T04:45:21.264Z,8.80
2022-12-15T04:48:07.097Z,8.70
2022-12-15T04:50:52.436Z,7.70
2022-12-15T04:53:38.711Z,9.80
2022-12-15T04:56:31.135Z,12.03
2022-12-15T04:59:16.564Z,9.13
2022-12-15T05:02:02.596Z,9.17
2022-12-15T05:04:47.961Z,12.17
2022-12-15T05:07:33.925Z,11.53
2022-12-15T05:10:19.173Z,9.20
2022-12-15T05:13:04.243Z,11.07
2022-12-15T05:15:51.308Z,12.10
2022-12-15T05:18:36.382Z,10.73
2022-12-15T05:21:21.940Z,10.10
2022-12-15T05:24:07.327Z,11.43
2022-12-15T05:26:53.469Z,12.53
2022-12-15T05:29:39.239Z,11.83
2022-12-15T05:32:06.751Z,10.60
2022-12-15T05:34:35.105Z,10.07
2022-12-15T05:37:03.253Z,9.00
2022-12-15T05:39:29.930Z,15.93
2022-12-15T05:41:57.333Z,12.87
2022-12-15T05:44:25.085Z,7.47
2022-12-15T05:46:51.814Z,9.87
2022-12-15T05:49:19.185Z,13.43
2022-12-15T05:51:47.855Z,13.40
2022-12-15T05:54:16.765Z,10.10
2022-12-15T05:56:43.751Z,11.23
2022-12-15T05:59:10.361Z,7.57
2022-12-15T06:01:37.202Z,6.07
2022-12-15T06:04:04.370Z,9.33
2022-12-15T06:06:31.076Z,4.73
2022-12-15T06:08:57.772Z,6.93
2022-12-15T06:11:24.563Z,4.33
2022-12-15T06:13:51.158Z,9.00
2022-12-15T06:16:21.970Z,13.00
2022-12-15T06:18:52.446Z,7.93
2022-12-15T06:21:25.786Z,7.77
2022-12-15T06:23:53.308Z,4.67
2022-12-15T06:26:30.095Z,7.53
2022-12-15T06:28:58.771Z,5.57
2022-12-15T06:31:26.699Z,7.27
2022-12-15T06:34:01.409Z,6.50
2022-12-15T06:36:30.728Z,6.60
2022-12-15T06:39:04.332Z,8.20
2022-12-15T06:41:32.042Z,9.27
2022-12-15T06:43:59.657Z,7.50
2022-12-15T06:46:28.167Z,6.37
2022-12-15T06:48:55.201Z,7.13
2022-12-15T06:51:22.361Z,6.53
2022-12-15T06:53:49.919Z,7.37
2022-12-15T06:56:30.637Z,6.23
2022-12-15T06:58:59.622Z,9.37
2022-12-15T07:01:26.929Z,6.23
2022-12-15T07:03:54.694Z,10.03
2022-12-15T07:06:21.719Z,8.20
2022-12-15T07:08:52.506Z,8.33
2022-12-15T07:11:21.123Z,6.47
2022-12-15T07:13:52.518Z,13.80
2022-12-15T07:16:20.419Z,10.30
2022-12-15T07:18:47.388Z,13.07
2022-12-15T07:21:14.081Z,12.63
2022-12-15T07:23:54.043Z,12.20
2022-12-15T07:26:22.027Z,10.67
2022-12-15T07:28:48.617Z,13.27
2022-12-15T07:31:15.871Z,15.50
2022-12-15T07:33:42.975Z,13.23
2022-12-15T07:36:11.095Z,13.07
2022-12-15T07:38:38.235Z,14.37
2022-12-15T07:41:09.987Z,9.07
2022-12-15T07:43:38.117Z,9.40
2022-12-15T07:46:05.559Z,9.47
2022-12-15T07:48:33.248Z,5.23
2022-12-15T07:51:11.103Z,6.67
2022-12-15T07:53:42.194Z,8.40
2022-12-15T07:56:10.162Z,9.87
2022-12-15T07:58:38.163Z,6.37
2022-12-15T08:01:07.712Z,12.27
2022-12-15T08:03:36.050Z,13.07
2022-12-15T08:06:08.001Z,12.07
2022-12-15T08:08:35.827Z,10.97
2022-12-15T08:11:07.424Z,12.10
2022-12-15T08:16:25.370Z,10.00
2022-12-15T08:18:52.144Z,8.03
2022-12-15T08:21:21.199Z,11.87
2022-12-15T08:23:48.160Z,14.10
2022-12-15T08:26:17.629Z,11.17
2022-12-15T08:28:44.318Z,12.73
2022-12-15T08:31:22.147Z,11.10
2022-12-15T08:33:49.248Z,11.97
2022-12-15T08:36:18.293Z,11.67
2022-12-15T08:38:46.335Z,12.53
2022-12-15T08:41:19.320Z,12.83
2022-12-15T08:43:49.554Z,14.17
2022-12-15T08:46:21.695Z,15.70
2022-12-15T08:48:49.496Z,14.27
2022-12-15T08:51:17.432Z,17.40
2022-12-15T08:53:44.327Z,15.73
2022-12-15T08:56:18.613Z,15.97
2022-12-15T08:58:47.299Z,18.13
2022-12-15T09:01:23.948Z,14.73
2022-12-15T09:03:53.850Z,16.87
2022-12-15T09:06:32.716Z,14.17
2022-12-15T09:09:03.056Z,11.80
2022-12-15T09:11:30.412Z,15.47
2022-12-15T09:13:57.918Z,15.43
2022-12-15T09:16:25.494Z,11.23
2022-12-15T09:18:54.850Z,19.93
2022-12-15T09:21:25.157Z,15.87
2022-12-15T09:23:54.291Z,19.90
2022-12-15T09:26:23.241Z,17.73
2022-12-15T09:28:51.087Z,15.30
2022-12-15T09:31:22.027Z,15.83
2022-12-15T09:33:51.247Z,13.10
2022-12-15T09:36:18.031Z,16.80
2022-12-15T09:38:45.011Z,12.13
2022-12-15T09:41:17.224Z,19.77
2022-12-15T09:44:06.791Z,21.43
2022-12-15T09:46:34.268Z,18.70
2022-12-15T09:49:10.914Z,18.17
2022-12-15T09:51:48.027Z,17.10
2022-12-15T09:54:14.939Z,20.67
2022-12-15T09:56:50.270Z,17.03
2022-12-15T09:59:26.399Z,17.90
2022-12-15T10:02:28.674Z,14.30
2022-12-15T10:05:03.466Z,16.70
2022-12-15T10:07:37.281Z,14.90
2022-12-15T10:10:12.174Z,15.27
2022-12-15T10:12:53.198Z,15.67
2022-12-15T10:15:27.524Z,12.13
2022-12-15T10:18:11.907Z,15.73
2022-12-15T10:20:38.608Z,19.07
2022-12-15T10:23:14.232Z,21.53
2022-12-15T10:25:47.299Z,15.63
2022-12-15T10:28:33.223Z,17.60
2022-12-15T10:31:07.998Z,14.73
2022-12-15T10:33:47.174Z,19.30
2022-12-15T10:36:16.790Z,28.67
2022-12-15T10:38:50.416Z,23.10
2022-12-15T10:41:23.694Z,24.27
2022-12-15T10:43:52.068Z,25.10
2022-12-15T10:46:23.411Z,21.90
2022-12-15T10:49:23.249Z,22.43
2022-12-15T10:51:57.308Z,26.23
2022-12-15T10:54:31.790Z,22.77
2022-12-15T10:57:02.957Z,25.40
2022-12-15T10:59:36.376Z,20.63
2022-12-15T11:02:25.675Z,23.77
2022-12-15T11:04:57.954Z,23.03
2022-12-15T11:07:36.071Z,21.77
2022-12-15T11:10:25.344Z,20.07
2022-12-15T11:13:13.779Z,17.67
2022-12-15T11:15:53.216Z,23.40
2022-12-15T11:19:00.000Z,17.53
2022-12-15T11:21:35.099Z,15.53
2022-12-15T11:24:22.608Z,22.47
2022-12-15T11:26:53.035Z,19.60
2022-12-15T11:29:57.178Z,22.03
2022-12-15T11:32:27.281Z,23.50
2022-12-15T11:34:55.242Z,37.67
2022-12-15T11:37:37.343Z,24.30
2022-12-15T11:40:36.766Z,32.67
2022-12-15T11:43:26.933Z,28.87
2022-12-15T11:46:18.266Z,33.67
2022-12-15T11:49:19.938Z,32.00
2022-12-15T11:51:57.903Z,36.00
2022-12-15T11:54:28.393Z,35.70
2022-12-15T11:57:32.427Z,41.80
2022-12-15T12:00:15.851Z,38.73
2022-12-15T12:03:10.182Z,34.57
2022-12-15T12:05:42.662Z,34.07
2022-12-15T12:08:29.473Z,38.00
2022-12-15T12:11:36.923Z,39.30
2022-12-15T12:14:34.175Z,37.40
2022-12-15T12:17:12.051Z,36.40
2022-12-15T12:19:45.715Z,32.90
2022-12-15T12:22:40.233Z,34.27
2022-12-15T12:25:15.469Z,29.80
2022-12-15T12:28:13.551Z,34.17
2022-12-15T12:30:45.433Z,36.47
2022-12-15T12:33:36.747Z,35.87
2022-12-15T12:36:10.955Z,36.67
2022-12-15T12:38:58.148Z,32.57
2022-12-15T12:41:39.535Z,41.40
2022-12-15T12:44:38.651Z,39.67
2022-12-15T12:47:20.190Z,34.20
2022-12-15T12:49:58.837Z,40.87
2022-12-15T12:52:28.191Z,38.77
2022-12-15T12:55:09.454Z,41.03
2022-12-15T12:57:39.229Z,48.03
2022-12-15T13:00:08.666Z,51.77
2022-12-15T13:02:37.009Z,55.57
2022-12-15T13:05:35.590Z,54.80
2022-12-15T13:08:08.182Z,49.77
2022-12-15T13:10:48.298Z,42.80
2022-12-15T13:13:30.123Z,45.77
2022-12-15T13:16:11.864Z,38.83
2022-12-15T13:18:58.990Z,42.70
2022-12-15T13:21:44.048Z,47.53
2022-12-15T13:24:25.612Z,43.30
2022-12-15T13:26:52.972Z,33.67
2022-12-15T13:29:25.584Z,44.33
2022-12-15T13:31:53.275Z,40.53
2022-12-15T13:34:28.680Z,45.97
2022-12-15T13:36:57.250Z,37.27
2022-12-15T13:39:29.972Z,39.20
2022-12-15T13:44:51.909Z,38.23
2022-12-15T13:47:30.089Z,42.50
2022-12-15T13:50:02.280Z,42.70
2022-12-15T13:53:16.200Z,45.97
2022-12-15T13:55:27.242Z,59.13
2022-12-15T13:58:00.731Z,52.73
2022-12-15T14:00:27.473Z,56.97
2022-12-15T14:03:13.192Z,54.97
2022-12-15T14:05:42.967Z,54.40
2022-12-15T14:08:14.443Z,68.63
2022-12-15T14:10:42.087Z,52.20
2022-12-15T14:16:21.185Z,48.43
2022-12-15T14:19:23.276Z,58.87
2022-12-15T14:21:56.359Z,50.57
2022-12-15T14:24:42.761Z,51.60
2022-12-15T14:27:09.396Z,57.33
2022-12-15T14:29:36.119Z,54.57
2022-12-15T14:32:03.588Z,63.47
2022-12-15T14:34:41.787Z,49.83
2022-12-15T14:37:16.510Z,49.70
2022-12-15T14:39:46.218Z,62.93
2022-12-15T14:42:21.900Z,54.40
2022-12-15T14:47:36.012Z,51.90
2022-12-15T14:50:04.248Z,55.17
2022-12-15T14:52:39.346Z,59.47
2022-12-15T14:55:21.250Z,48.77
2022-12-15T14:57:48.909Z,51.20
2022-12-15T15:00:31.281Z,49.33
2022-12-15T15:03:09.925Z,54.93
2022-12-15T15:03:14.222Z,60.27
2022-12-15T15:03:20.031Z,54.00
2022-12-15T15:05:55.901Z,46.37
2022-12-15T15:08:35.449Z,47.40
2022-12-15T15:11:19.299Z,52.97
2022-12-15T15:13:46.958Z,39.13
2022-12-15T15:16:19.104Z,40.30
2022-12-15T15:18:54.095Z,29.90
2022-12-15T15:21:24.034Z,33.53
2022-12-15T15:24:12.203Z,30.87
2022-12-15T15:26:40.062Z,29.83
2022-12-15T15:29:42.122Z,29.80
2022-12-15T15:32:19.444Z,27.90
2022-12-15T15:34:47.304Z,38.50
2022-12-15T15:37:26.226Z,39.83
2022-12-15T15:39:56.323Z,47.73
2022-12-15T15:42:26.526Z,41.93
2022-12-15T15:44:55.800Z,45.40
2022-12-15T15:47:26.114Z,41.93
2022-12-15T15:49:54.977Z,42.20
2022-12-15T15:52:23.003Z,37.60
2022-12-15T15:54:50.147Z,34.43
2022-12-15T15:57:17.893Z,44.27
2022-12-15T15:59:45.306Z,37.10
2022-12-15T16:02:13.817Z,43.37
2022-12-15T16:04:44.825Z,36.83
2022-12-15T16:07:25.602Z,42.23
2022-12-15T16:09:53.637Z,40.40
2022-12-15T16:12:29.580Z,47.57
2022-12-15T16:14:56.562Z,53.40
2022-12-15T16:17:25.471Z,56.33
2022-12-15T16:19:52.076Z,48.40
2022-12-15T16:22:21.341Z,44.53
2022-12-15T16:24:51.732Z,40.23
2022-12-15T16:27:19.459Z,36.97
2022-12-15T16:29:46.036Z,38.83
2022-12-15T16:32:13.417Z,41.70
2022-12-15T16:34:41.628Z,39.87
2022-12-15T16:37:26.320Z,39.07
2022-12-15T16:39:53.310Z,36.73
2022-12-15T16:42:19.932Z,36.97
2022-12-15T16:44:46.569Z,60.00
2022-12-15T16:47:13.198Z,52.17
2022-12-15T16:49:40.578Z,48.03
2022-12-15T16:52:18.409Z,50.17
2022-12-15T16:54:48.874Z,54.37
2022-12-15T16:57:15.591Z,52.33
2022-12-15T16:59:42.188Z,49.57
2022-12-15T17:02:36.103Z,53.30
2022-12-15T17:05:02.881Z,41.47
2022-12-15T17:07:29.692Z,47.90
2022-12-15T17:09:56.717Z,52.07
2022-12-15T17:12:23.494Z,53.93
2022-12-15T17:14:50.026Z,52.40
2022-12-15T17:17:19.708Z,54.17
2022-12-15T17:20:19.765Z,60.30
2022-12-15T17:22:33.878Z,54.10
2022-12-15T17:25:00.524Z,62.90
2022-12-15T17:27:29.536Z,52.57
2022-12-15T17:29:59.540Z,60.83
2022-12-15T17:32:26.823Z,60.33
2022-12-15T17:34:53.470Z,52.77
2022-12-15T17:37:20.073Z,48.87
2022-12-15T17:39:51.231Z,50.80
2022-12-15T17:42:20.218Z,48.40
2022-12-15T17:44:51.806Z,49.47
2022-12-15T17:47:25.998Z,45.47
2022-12-15T17:49:58.516Z,43.63
2022-12-15T17:52:30.914Z,47.13
2022-12-15T17:54:57.985Z,59.10
2022-12-15T17:57:25.600Z,51.37
2022-12-15T17:59:58.240Z,49.27
2022-12-15T18:02:25.041Z,46.50
2022-12-15T18:04:51.951Z,50.60
2022-12-15T18:07:22.042Z,54.93
2022-12-15T18:09:50.368Z,53.60
2022-12-15T18:12:22.655Z,48.57
2022-12-15T18:14:49.757Z,44.67
2022-12-15T18:17:16.652Z,55.33
2022-12-15T18:19:46.617Z,52.30
2022-12-15T18:22:22.942Z,54.87
2022-12-15T18:24:54.095Z,54.17
2022-12-15T18:27:26.995Z,54.93
2022-12-15T18:29:54.058Z,43.13
2022-12-15T18:32:23.754Z,42.20
2022-12-15T18:35:18.901Z,43.23
2022-12-15T18:38:27.291Z,47.23
2022-12-15T18:41:00.294Z,42.97
2022-12-15T18:43:39.051Z,40.53
2022-12-15T18:46:13.452Z,39.93
2022-12-15T18:48:41.320Z,38.97
2022-12-15T18:51:22.329Z,36.43
2022-12-15T18:53:49.351Z,33.03
2022-12-15T18:56:18.191Z,37.57
2022-12-15T18:58:45.697Z,34.83
2022-12-15T19:01:12.345Z,30.13
2022-12-15T19:03:41.024Z,27.17
2022-12-15T19:06:20.303Z,28.37
2022-12-15T19:08:50.902Z,32.30
2022-12-15T19:11:30.949Z,32.13
2022-12-15T19:13:59.325Z,26.90
2022-12-15T19:16:26.852Z,30.53
2022-12-15T19:19:17.076Z,23.27
2022-12-15T19:22:02.940Z,21.97
2022-12-15T19:24:50.367Z,17.80
2022-12-15T19:27:23.250Z,23.23
2022-12-15T19:29:50.631Z,25.57
2022-12-15T19:32:17.219Z,21.83
2022-12-15T19:34:44.331Z,25.33
2022-12-15T19:37:25.166Z,27.97
2022-12-15T19:39:52.315Z,23.40
2022-12-15T19:42:28.039Z,19.17
2022-12-15T19:44:54.663Z,26.60
2022-12-15T19:47:21.482Z,31.13
2022-12-15T19:49:48.054Z,29.80
2022-12-15T19:52:16.502Z,26.57
2022-12-15T19:54:45.233Z,29.03
2022-12-15T19:57:13.084Z,25.20
2022-12-15T19:59:39.869Z,25.43
2022-12-15T20:02:09.012Z,28.53
2022-12-15T20:04:35.827Z,30.87
2022-12-15T20:07:04.193Z,35.67
2022-12-15T20:09:30.831Z,34.33
2022-12-15T20:11:57.785Z,32.73
2022-12-15T20:14:24.870Z,29.17
2022-12-15T20:16:51.604Z,30.00
2022-12-15T20:19:18.270Z,34.93
2022-12-15T20:21:47.738Z,36.57
2022-12-15T20:24:18.886Z,36.27
2022-12-15T20:26:46.644Z,38.27
2022-12-15T20:29:28.929Z,36.43
2022-12-15T20:31:57.630Z,37.67
2022-12-15T20:34:24.844Z,32.30
2022-12-15T20:36:51.705Z,41.83
2022-12-15T20:39:21.165Z,41.67
2022-12-15T20:41:47.859Z,43.73
2022-12-15T20:44:14.534Z,44.50
2022-12-15T20:46:41.606Z,51.17
2022-12-15T20:49:22.440Z,41.40
2022-12-15T20:51:49.261Z,47.27
2022-12-15T20:54:21.589Z,39.27
2022-12-15T20:56:49.468Z,37.90
2022-12-15T20:59:17.689Z,35.93
2022-12-15T21:01:44.730Z,38.03
2022-12-15T21:04:26.858Z,44.87
2022-12-15T21:06:55.240Z,32.63
2022-12-15T21:09:22.357Z,33.37
2022-12-15T21:11:49.653Z,30.20
2022-12-15T21:14:19.621Z,36.37
2022-12-15T21:16:46.947Z,32.83
2022-12-15T21:19:20.262Z,43.90
2022-12-15T21:21:51.894Z,40.80
2022-12-15T21:24:24.997Z,40.80
2022-12-15T21:26:52.003Z,42.87
2022-12-15T21:29:24.963Z,35.43
2022-12-15T21:31:51.744Z,30.70
2022-12-15T21:34:18.407Z,27.13
2022-12-15T21:36:47.687Z,32.20
2022-12-15T21:39:34.147Z,29.33
2022-12-15T21:42:11.436Z,33.23
2022-12-15T21:44:38.052Z,31.00
2022-12-15T21:47:47.109Z,31.13
2022-12-15T21:50:14.854Z,29.03
2022-12-15T21:52:41.798Z,29.80
2022-12-15T21:55:21.265Z,32.67
2022-12-15T21:57:47.963Z,32.13
2022-12-15T22:00:17.513Z,40.27
2022-12-15T22:02:45.606Z,36.90
2022-12-15T22:05:20.640Z,41.97
2022-12-15T22:07:48.885Z,36.13
2022-12-15T22:10:16.506Z,37.13
2022-12-15T22:12:45.728Z,39.00
2022-12-15T22:15:15.554Z,36.40
2022-12-15T22:17:42.544Z,32.33
2022-12-15T22:20:21.225Z,48.13
2022-12-15T22:22:48.275Z,36.47
2022-12-15T22:25:25.770Z,40.53
2022-12-15T22:27:52.665Z,34.90
2022-12-15T22:30:25.763Z,35.67
2022-12-15T22:32:52.857Z,40.57
2022-12-15T22:35:25.938Z,45.07
2022-12-15T22:37:56.383Z,41.60
2022-12-15T22:40:24.295Z,40.70
2022-12-15T22:42:57.693Z,49.77
2022-12-15T22:45:24.419Z,51.17
2022-12-15T22:47:52.438Z,47.40
2022-12-15T22:50:22.059Z,50.37
2022-12-15T22:52:48.786Z,54.73
2022-12-15T22:55:17.764Z,57.37
2022-12-15T22:57:50.332Z,44.40
2022-12-15T23:00:17.983Z,58.17
2022-12-15T23:02:46.502Z,43.20
2022-12-15T23:05:16.004Z,54.47
2022-12-15T23:07:44.243Z,54.30
2022-12-15T23:10:33.003Z,54.80
2022-12-15T23:12:59.719Z,47.93
2022-12-15T23:15:46.615Z,49.60
2022-12-15T23:18:13.734Z,49.40
2022-12-15T23:20:41.338Z,48.13
2022-12-15T23:23:08.426Z,56.77
2022-12-15T23:25:35.043Z,60.70
2022-12-15T23:28:02.116Z,45.50
2022-12-15T23:30:28.757Z,49.60
2022-12-15T23:32:55.608Z,43.70
2022-12-15T23:35:22.541Z,47.37
2022-12-15T23:37:49.269Z,45.30
2022-12-15T23:40:22.190Z,42.57
2022-12-15T23:42:50.517Z,49.70
2022-12-15T23:45:18.197Z,41.07
2022-12-15T23:47:44.889Z,32.67
2022-12-15T23:50:11.785Z,40.40
2022-12-15T23:52:38.427Z,36.70
2022-12-15T23:55:05.516Z,37.97
2022-12-15T23:57:32.146Z,33.83
2022-12-15T23:59:58.845Z,39.53
